Time;durP1;ratioP1;P1;durP2;ratioP2;P2;SDS_P1;SDS_P2;PMS_P1;PMS_P2;Temp;Humidity;BMP_temperature;BMP_pressure;BME280_temperature;BME280_humidity;BME280_pressure;Samples;Min_cycle;Max_cycle;Signal;HPM_P1;HPM_P2
2021/04/13 00:02:29;;;;;;;20.02;14.50;;;;;;;10.74;70.12;101524.31;1804092;78;21121;-72
2021/04/13 00:05:07;;;;;;;18.42;12.80;;;;;;;10.73;70.19;101516.50;1803767;76;21026;-73
2021/04/13 00:07:55;;;;;;;21.42;13.50;;;;;;;10.72;70.13;101520.91;1785434;79;20938;-73
2021/04/13 00:10:36;;;;;;;22.25;13.45;;;;;;;10.69;70.23;101508.37;1735257;79;21552;-72
2021/04/13 00:13:06;;;;;;;22.60;14.50;;;;;;;10.68;70.29;101518.02;1806238;76;21505;-72
2021/04/13 00:15:51;;;;;;;19.82;13.85;;;;;;;10.65;70.39;101515.55;1830308;76;21593;-72
2021/04/13 00:18:42;;;;;;;20.55;14.90;;;;;;;10.69;70.48;101513.16;1736472;76;22792;-73
2021/04/13 00:21:27;;;;;;;21.97;14.30;;;;;;;10.65;70.45;101522.55;1733073;77;20971;-73
2021/04/13 00:23:56;;;;;;;18.60;13.70;;;;;;;10.66;70.42;101523.80;1720735;77;21374;-73
2021/04/13 00:26:28;;;;;;;25.60;15.70;;;;;;;10.69;70.37;101525.42;1737202;78;21523;-73
2021/04/13 00:28:58;;;;;;;26.65;15.83;;;;;;;10.68;70.32;101518.02;1729743;80;21332;-72
2021/04/13 00:31:53;;;;;;;27.80;16.20;;;;;;;10.67;70.33;101508.91;1745948;78;21207;-72
2021/04/13 00:34:37;;;;;;;20.72;13.68;;;;;;;10.69;70.41;101505.75;1740665;80;21064;31
2021/04/13 00:37:14;;;;;;;30.85;14.60;;;;;;;10.71;70.45;101507.38;1717881;80;21136;-74
2021/04/13 00:39:43;;;;;;;21.42;14.15;;;;;;;10.74;70.61;101503.31;1694324;81;21161;-73
2021/04/13 00:42:13;;;;;;;28.85;17.98;;;;;;;10.79;70.41;101495.23;1709055;78;21514;-72
2021/04/13 00:44:49;;;;;;;31.33;19.02;;;;;;;10.82;70.59;101492.45;1736187;77;21657;-73
2021/04/13 00:47:53;;;;;;;33.48;20.55;;;;;;;10.85;70.58;101497.58;1719484;77;20986;-74
2021/04/13 00:50:59;;;;;;;36.65;21.65;;;;;;;10.87;70.47;101497.05;1733357;77;21779;-74
2021/04/13 00:53:28;;;;;;;39.70;25.12;;;;;;;10.90;70.41;101506.54;1759386;77;20975;-74
2021/04/13 00:55:58;;;;;;;28.87;18.52;;;;;;;10.87;70.43;101512.78;1687978;79;20962;-74
2021/04/13 00:58:49;;;;;;;21.23;15.88;;;;;;;10.86;70.36;101511.53;1706790;81;22146;31
2021/04/13 01:04:24;;;;;;;24.92;15.05;;;;;;;10.85;70.50;101503.26;1744306;78;21391;-69
2021/04/13 01:07:14;;;;;;;24.95;14.43;;;;;;;10.84;70.53;101517.31;1758386;79;21023;-73
2021/04/13 01:09:47;;;;;;;39.35;22.60;;;;;;;10.81;70.40;101515.69;1759130;78;20948;-73
2021/04/13 01:12:31;;;;;;;59.60;32.88;;;;;;;10.81;70.80;101510.91;1703530;78;20998;-73
2021/04/13 01:15:07;;;;;;;74.50;40.55;;;;;;;10.84;70.81;101505.04;1720373;80;21034;-73
2021/04/13 01:17:42;;;;;;;82.42;41.85;;;;;;;10.87;70.58;101509.28;1784463;76;21371;-74
2021/04/13 01:20:30;;;;;;;33.33;19.15;;;;;;;10.88;70.57;101509.70;1717388;80;21017;-73
2021/04/13 01:25:32;;;;;;;21.70;15.20;;;;;;;10.92;70.01;101509.95;1759078;76;22859;-74
2021/04/13 01:28:09;;;;;;;21.85;14.90;;;;;;;10.84;70.03;101501.57;1721764;80;21127;-74
2021/04/13 01:31:11;;;;;;;24.37;16.60;;;;;;;10.83;69.97;101498.55;1700289;79;21346;-72
2021/04/13 01:33:51;;;;;;;25.23;15.10;;;;;;;10.86;69.78;101498.42;1642710;82;20947;-75
2021/04/13 01:36:31;;;;;;;34.10;20.05;;;;;;;10.86;69.66;101497.95;1677983;79;21082;-84
2021/04/13 01:39:22;;;;;;;26.97;16.87;;;;;;;10.83;69.82;101497.23;1685211;80;21022;-68
2021/04/13 01:41:58;;;;;;;23.98;15.18;;;;;;;10.80;69.93;101491.67;1677501;79;21072;31
2021/04/13 01:44:49;;;;;;;22.27;14.73;;;;;;;10.82;69.84;101492.45;1721398;79;21367;-74
2021/04/13 01:50:15;;;;;;;21.27;15.28;;;;;;;10.87;69.76;101485.67;1719554;78;21369;-73
2021/04/13 01:52:47;;;;;;;28.50;16.15;;;;;;;10.87;69.80;101481.30;1709576;79;21076;-74
2021/04/13 01:55:24;;;;;;;25.27;15.85;;;;;;;10.91;69.68;101476.73;1723333;79;20942;-73
2021/04/13 01:58:36;;;;;;;27.95;16.90;;;;;;;10.96;69.50;101469.48;1688624;79;21341;-73
2021/04/13 02:01:12;;;;;;;27.40;17.42;;;;;;;11.00;69.38;101472.36;1689543;77;21034;-81
2021/04/13 02:03:50;;;;;;;37.30;21.37;;;;;;;10.99;69.26;101465.42;1739373;79;21013;-73
2021/04/13 02:07:07;;;;;;;29.35;19.30;;;;;;;10.95;69.27;101461.23;1656741;81;21058;31
2021/04/13 02:09:49;;;;;;;30.23;19.12;;;;;;;10.92;69.37;101459.61;1680924;80;21437;-73
2021/04/13 02:12:31;;;;;;;23.30;17.00;;;;;;;10.88;69.55;101461.99;1673379;79;21439;-74
2021/04/13 02:15:19;;;;;;;28.42;18.75;;;;;;;10.85;69.76;101462.59;1712892;79;20976;-73
2021/04/13 02:18:03;;;;;;;27.62;18.98;;;;;;;10.82;69.85;101458.81;1683363;81;21060;-71
2021/04/13 02:23:14;;;;;;;32.85;18.75;;;;;;;10.87;69.89;101451.13;1792577;74;22649;-71
2021/04/13 02:25:43;;;;;;;28.05;18.95;;;;;;;10.82;69.86;101452.25;1741376;77;21003;-75
2021/04/13 02:28:16;;;;;;;28.85;17.65;;;;;;;10.81;69.91;101451.88;1720958;77;21375;31
2021/04/13 02:30:46;;;;;;;25.55;17.37;;;;;;;10.78;69.90;101450.22;1737575;78;20973;-73
2021/04/13 02:33:31;;;;;;;28.90;16.93;;;;;;;10.77;70.00;101446.75;1773350;77;21033;-73
2021/04/13 02:36:32;;;;;;;25.77;16.85;;;;;;;10.76;70.12;101440.26;1797538;77;21585;-74
2021/04/13 02:39:03;;;;;;;27.17;18.25;;;;;;;10.73;70.26;101425.98;1737952;77;21460;-82
2021/04/13 02:41:40;;;;;;;22.37;15.63;;;;;;;10.73;70.41;101414.19;1710066;78;21369;31
2021/04/13 02:44:11;;;;;;;25.70;18.75;;;;;;;10.74;70.33;101417.21;1749929;77;22147;-74
2021/04/13 02:46:39;;;;;;;24.52;18.45;;;;;;;10.75;70.38;101407.94;1728703;76;20966;-72
2021/04/13 02:49:17;;;;;;;34.38;19.27;;;;;;;10.75;70.33;101407.09;1753453;76;20945;31
2021/04/13 02:52:03;;;;;;;29.98;18.75;;;;;;;10.74;70.32;101413.28;1762363;77;20946;-73
2021/04/13 02:54:43;;;;;;;31.87;18.70;;;;;;;10.73;70.34;101409.78;1756536;77;21447;-74
2021/04/13 02:57:40;;;;;;;21.42;15.38;;;;;;;10.72;70.46;101410.72;1752464;79;21054;-82
2021/04/13 03:00:19;;;;;;;26.87;16.17;;;;;;;10.71;70.52;101408.16;1740509;80;20919;-74
2021/04/13 03:02:52;;;;;;;24.45;16.17;;;;;;;10.67;70.55;101411.41;1789696;78;21150;-74
2021/04/13 03:05:25;;;;;;;;;;;;;;;10.64;70.63;101414.62;1780199;77;21479;-74
2021/04/13 03:07:53;;;;;;;24.32;15.53;;;;;;;10.64;70.68;101418.56;1784813;79;22113;-72
2021/04/13 03:10:28;;;;;;;24.40;16.10;;;;;;;10.61;70.66;101418.72;1790268;77;20993;-73
2021/04/13 03:13:17;;;;;;;28.00;16.70;;;;;;;10.58;70.76;101421.00;1790128;75;20937;31
2021/04/13 03:15:58;;;;;;;22.55;16.57;;;;;;;10.57;70.77;101415.38;1779760;77;21021;-72
2021/04/13 03:18:35;;;;;;;22.77;16.27;;;;;;;10.58;70.81;101410.50;1808651;75;20997;-73
2021/04/13 03:24:04;;;;;;;20.85;14.80;;;;;;;10.60;70.92;101416.53;1821734;76;20911;-73
2021/04/13 03:26:37;;;;;;;24.00;17.05;;;;;;;10.47;70.82;101387.44;1805679;75;21069;-72
2021/04/13 03:29:10;;;;;;;24.23;16.97;;;;;;;10.67;70.68;101419.72;1780258;76;20932;-74
2021/04/13 03:31:39;;;;;;;27.10;18.82;;;;;;;10.69;70.58;101409.53;1814064;76;21017;-73
2021/04/13 03:34:08;;;;;;;25.80;17.48;;;;;;;10.68;70.50;101405.22;1780946;76;21201;-73
2021/04/13 03:36:38;;;;;;;22.37;16.07;;;;;;;10.69;70.42;101406.91;1767295;76;21006;-74
2021/04/13 03:39:13;;;;;;;21.00;15.60;;;;;;;10.69;70.41;101418.71;1804133;76;20943;-74
2021/04/13 03:41:46;;;;;;;28.57;16.70;;;;;;;10.69;70.49;101417.41;1761076;76;20988;-73
2021/04/13 03:44:15;;;;;;;26.42;15.90;;;;;;;10.67;70.56;101415.34;1870080;75;21472;-84
2021/04/13 03:46:45;;;;;;;25.52;17.65;;;;;;;10.69;70.59;101419.19;1825414;75;21195;-72
2021/04/13 03:52:29;;;;;;;23.10;16.17;;;;;;;10.76;70.59;101429.77;1850534;76;22068;-72
2021/04/13 03:54:57;;;;;;;26.65;17.17;;;;;;;10.71;70.46;101439.64;1780250;77;20976;-72
2021/04/13 04:00:19;;;;;;;27.98;16.77;;;;;;;10.68;70.55;101449.81;1794357;79;20909;-73
2021/04/13 04:02:48;;;;;;;23.27;13.95;;;;;;;10.69;70.56;101451.50;1794602;78;21043;-73
2021/04/13 04:05:22;;;;;;;19.82;14.68;;;;;;;10.69;70.64;101455.44;1792265;75;21233;-87
2021/04/13 04:07:56;;;;;;;22.17;14.80;;;;;;;10.67;70.70;101454.69;1782107;75;21005;-73
2021/04/13 04:10:49;;;;;;;21.55;14.98;;;;;;;10.69;70.75;101461.16;1798011;75;21126;-74
2021/04/13 04:13:22;;;;;;;24.00;18.20;;;;;;;10.67;70.66;101461.25;1792175;76;20963;-74
2021/04/13 04:16:10;;;;;;;27.27;17.97;;;;;;;10.63;70.72;101467.55;1804122;75;21330;-74
2021/04/13 04:18:47;;;;;;;28.60;17.92;;;;;;;10.59;70.76;101472.55;1789109;74;21439;-73
2021/04/13 04:21:33;;;;;;;23.47;16.73;;;;;;;10.57;70.92;101472.61;1775381;77;21019;-73
2021/04/13 04:24:19;;;;;;;23.57;16.67;;;;;;;10.61;70.97;101474.64;1796954;78;21360;-73
2021/04/13 04:26:55;;;;;;;22.48;15.32;;;;;;;10.64;70.88;101470.55;1803007;76;22922;-71
2021/04/13 04:29:42;;;;;;;20.88;15.55;;;;;;;10.68;70.88;101478.67;1743892;78;21034;-71
2021/04/13 04:32:20;;;;;;;22.25;16.90;;;;;;;10.69;70.91;101476.42;1783892;75;20961;-72
2021/04/13 04:35:04;;;;;;;;;;;;;;;;;;;;;
2021/04/13 04:37:33;;;;;;;21.30;15.55;;;;;;;10.76;70.87;101478.30;1834434;76;20887;-83
2021/04/13 04:40:18;;;;;;;25.05;15.43;;;;;;;10.75;70.74;101472.20;1783043;75;21030;-74
2021/04/13 04:43:12;;;;;;;25.62;14.55;;;;;;;10.74;70.76;101464.44;1764159;77;21073;-72
2021/04/13 04:45:47;;;;;;;24.20;15.65;;;;;;;10.72;70.78;101460.56;1709116;83;21021;-73
2021/04/13 04:49:03;;;;;;;30.37;16.37;;;;;;;10.75;70.82;101460.41;1753072;78;21037;-72
2021/04/13 04:51:31;;;;;;;25.27;16.20;;;;;;;10.79;70.83;101458.50;1803703;76;21361;-74
2021/04/13 04:53:59;;;;;;;25.82;16.25;;;;;;;10.82;70.83;101451.78;1786805;76;20995;-74
2021/04/13 04:56:27;;;;;;;33.70;17.45;;;;;;;10.87;70.76;101453.75;1745596;78;20996;-76
2021/04/13 04:58:58;;;;;;;24.72;16.75;;;;;;;10.92;70.65;101459.61;1710955;79;20937;-74
2021/04/13 05:01:31;;;;;;;22.82;17.67;;;;;;;10.97;70.63;101455.45;1787962;77;21302;-76
2021/04/13 05:03:59;;;;;;;29.27;17.62;;;;;;;11.02;70.52;101460.48;1832967;77;22074;-76
2021/04/13 05:06:28;;;;;;;24.72;16.60;;;;;;;11.06;70.33;101462.88;1852367;77;21499;-74
2021/04/13 05:08:57;;;;;;;20.00;14.70;;;;;;;11.11;70.21;101468.75;1772572;76;21531;-74
2021/04/13 05:11:27;;;;;;;25.20;15.85;;;;;;;11.13;69.98;101466.06;1821887;76;21075;-78
2021/04/13 05:13:57;;;;;;;28.60;16.65;;;;;;;11.14;70.06;101456.80;1798975;76;20973;-72
2021/04/13 05:16:25;;;;;;;24.57;14.83;;;;;;;11.20;70.10;101464.83;1821058;75;21430;-72
2021/04/13 05:18:54;;;;;;;21.10;15.40;;;;;;;11.26;70.07;101461.06;1823542;75;21498;-71
2021/04/13 05:21:22;;;;;;;23.10;16.32;;;;;;;11.32;69.71;101460.77;1823839;75;21076;-72
2021/04/13 05:23:50;;;;;;;21.42;15.58;;;;;;;11.37;69.69;101461.38;1798055;77;21631;-72
2021/04/13 05:26:19;;;;;;;21.23;15.05;;;;;;;11.41;69.42;101457.20;1810712;77;21097;-72
2021/04/13 05:28:47;;;;;;;22.52;15.32;;;;;;;11.40;69.21;101452.02;1775048;78;21370;-72
2021/04/13 05:31:15;;;;;;;25.12;15.72;;;;;;;11.39;69.16;101457.74;1819632;77;20929;-72
2021/04/13 05:33:44;;;;;;;21.35;14.38;;;;;;;11.42;69.18;101455.42;1823431;76;21171;-73
2021/04/13 05:36:13;;;;;;;26.37;15.83;;;;;;;11.44;69.24;101457.52;1826110;75;21096;-72
2021/04/13 05:38:42;;;;;;;21.48;15.68;;;;;;;11.48;69.26;101457.75;1829400;75;21853;-71
2021/04/13 05:41:13;;;;;;;23.70;15.40;;;;;;;11.53;69.20;101456.20;1801259;77;21200;-71
2021/04/13 05:43:42;;;;;;;21.70;15.72;;;;;;;11.59;69.11;101450.64;1813468;76;21130;-72
2021/04/13 05:46:15;;;;;;;25.52;16.35;;;;;;;11.64;68.93;101449.09;1814070;76;21144;-71
2021/04/13 05:48:44;;;;;;;20.17;14.65;;;;;;;11.69;68.97;101451.86;1789454;75;21357;-72
2021/04/13 05:51:13;;;;;;;21.95;15.68;;;;;;;11.74;68.85;101452.96;1831523;77;21024;-72
2021/04/13 05:53:41;;;;;;;21.68;14.73;;;;;;;11.76;68.82;101457.64;1783589;77;22050;-72
2021/04/13 05:56:11;;;;;;;21.75;14.50;;;;;;;11.80;68.75;101456.12;1792081;76;20997;-82
2021/04/13 05:58:49;;;;;;;21.70;13.28;;;;;;;11.88;68.70;101460.16;1837235;76;21022;-86
2021/04/13 06:01:37;;;;;;;19.45;13.00;;;;;;;11.94;68.64;101463.75;1766099;78;21004;-76
2021/04/13 06:04:07;;;;;;;19.90;12.90;;;;;;;12.01;68.50;101466.47;1845543;76;20908;-72
2021/04/13 06:06:39;;;;;;;14.20;11.50;;;;;;;12.09;68.19;101463.42;1762012;76;21325;31
2021/04/13 06:09:11;;;;;;;17.70;12.82;;;;;;;12.16;67.93;101463.04;1790448;76;20947;-83
2021/04/13 06:11:40;;;;;;;21.27;12.33;;;;;;;12.23;67.87;101460.94;1728180;79;20966;-76
2021/04/13 06:14:11;;;;;;;16.10;12.53;;;;;;;12.28;67.37;101455.42;1753709;76;20935;-77
2021/04/13 06:16:43;;;;;;;15.83;12.18;;;;;;;12.31;67.18;101454.77;1791435;76;20934;-75
2021/04/13 06:19:13;;;;;;;19.02;11.88;;;;;;;12.33;67.09;101456.02;1780862;77;21371;-80
2021/04/13 06:21:45;;;;;;;16.90;11.25;;;;;;;12.36;66.97;101460.66;1807281;76;20926;-80
2021/04/13 06:24:14;;;;;;;18.60;11.88;;;;;;;12.39;66.92;101456.53;1733390;78;20998;-77
2021/04/13 06:26:42;;;;;;;17.48;11.85;;;;;;;12.41;66.80;101453.36;1788522;77;20968;-79
2021/04/13 06:29:12;;;;;;;13.88;10.53;;;;;;;12.46;66.70;101449.63;1819101;77;21033;-81
2021/04/13 06:31:49;;;;;;;18.15;13.10;;;;;;;12.51;66.72;101459.42;1858979;77;21363;-80
2021/04/13 06:34:18;;;;;;;17.92;13.65;;;;;;;12.58;66.37;101458.16;1779463;75;20985;-77
2021/04/13 06:36:48;;;;;;;14.40;12.10;;;;;;;12.63;66.12;101458.30;1812396;75;21024;-75
2021/04/13 06:39:20;;;;;;;15.08;11.25;;;;;;;12.67;65.88;101464.22;1786847;75;21036;-86
2021/04/13 06:42:05;;;;;;;19.42;13.68;;;;;;;12.70;65.85;101456.65;1778398;75;20919;-79
2021/04/13 06:45:03;;;;;;;17.00;13.30;;;;;;;12.71;65.50;101464.44;1839892;75;21295;-81
2021/04/13 06:48:06;;;;;;;17.45;11.95;;;;;;;12.72;65.56;101459.57;1836787;77;20972;-77
2021/04/13 06:51:13;;;;;;;15.48;11.90;;;;;;;12.75;65.47;101465.13;1838397;78;21095;-79
2021/04/13 06:54:18;;;;;;;;;;;;;;;12.79;65.37;101464.02;1869739;76;20976;-78
2021/04/13 06:57:20;;;;;;;19.00;12.28;;;;;;;12.86;65.14;101471.95;1807778;75;20113;-78
2021/04/13 07:00:07;;;;;;;16.97;12.63;;;;;;;12.91;65.14;101471.70;1731376;82;20989;-77
2021/04/13 07:03:06;;;;;;;18.20;11.40;;;;;;;12.98;64.86;101471.28;1753380;75;21028;-77
2021/04/13 07:06:01;;;;;;;14.20;8.63;;;;;;;13.07;64.46;101473.83;1789663;75;20954;-76
2021/04/13 07:08:46;;;;;;;16.55;10.00;;;;;;;13.14;64.04;101473.02;1728848;79;21347;-79
2021/04/13 07:11:29;;;;;;;12.70;9.98;;;;;;;13.19;64.06;101472.30;1749202;78;20991;-78
2021/04/13 07:14:47;;;;;;;;;;;;;;;;;;;;;
2021/04/13 07:17:59;;;;;;;14.03;9.65;;;;;;;13.31;63.41;101468.98;1599917;85;21131;31
2021/04/13 07:21:04;;;;;;;12.80;8.48;;;;;;;13.35;63.13;101463.92;1852047;74;22703;-81
2021/04/13 07:23:59;;;;;;;13.38;11.15;;;;;;;13.31;63.01;101465.03;1757728;80;20945;-80
2021/04/13 07:26:35;;;;;;;12.55;8.95;;;;;;;13.32;63.06;101464.55;1789562;77;21378;-72
2021/04/13 07:29:30;;;;;;;13.22;10.30;;;;;;;13.34;62.63;101466.19;1761660;78;20958;-79
2021/04/13 07:32:21;;;;;;;11.68;8.23;;;;;;;13.36;62.75;101464.77;1764735;78;21463;-79
2021/04/13 07:34:56;;;;;;;11.73;8.78;;;;;;;13.40;62.45;101454.43;1761651;80;21618;-79
2021/04/13 07:37:39;;;;;;;10.03;8.50;;;;;;;13.45;62.54;101459.83;1761510;80;21021;-78
2021/04/13 07:40:34;;;;;;;9.33;7.50;;;;;;;13.62;62.38;101461.92;1815527;73;22760;-74
2021/04/13 07:43:20;;;;;;;10.20;7.30;;;;;;;13.62;61.89;101460.60;1761783;78;20896;-75
2021/04/13 07:52:25;;;;;;;12.47;8.88;;;;;;;13.79;60.75;101449.91;1732187;78;21427;-74
2021/04/13 07:55:18;;;;;;;8.00;7.12;;;;;;;13.87;60.74;101445.47;1761852;75;21256;-79
2021/04/13 07:58:18;;;;;;;12.35;7.42;;;;;;;13.88;60.67;101440.12;1799041;77;20992;-77
2021/04/13 08:00:50;;;;;;;8.63;7.05;;;;;;;13.91;60.32;101439.08;1801135;78;21768;-77
2021/04/13 08:03:45;;;;;;;7.80;6.20;;;;;;;13.97;59.93;101438.71;1814476;76;21098;-77
2021/04/13 08:06:34;;;;;;;7.50;6.12;;;;;;;14.00;59.34;101436.35;1752255;79;21029;-82
2021/04/13 08:09:28;;;;;;;7.65;5.92;;;;;;;14.03;59.11;101444.94;1755366;75;21124;-78
2021/04/13 08:12:11;;;;;;;11.12;6.60;;;;;;;14.05;59.05;101445.69;1759353;75;20943;-81
2021/04/13 08:14:45;;;;;;;;;;;;;;;14.09;58.96;101440.61;1769500;78;21369;-77
2021/04/13 08:17:27;;;;;;;15.28;6.03;;;;;;;14.10;58.83;101443.61;1756452;79;20126;-77
2021/04/13 08:20:14;;;;;;;8.95;5.35;;;;;;;14.10;58.85;101440.97;1790567;77;20947;-79
2021/04/13 08:22:58;;;;;;;9.13;6.85;;;;;;;14.10;58.34;101441.45;1801068;78;21084;-76
2021/04/13 08:25:57;;;;;;;5.95;5.22;;;;;;;14.08;58.44;101437.58;1852140;76;21023;-79
2021/04/13 08:28:38;;;;;;;6.70;5.95;;;;;;;14.06;58.09;101434.19;1840074;75;21458;-77
2021/04/13 08:34:55;;;;;;;10.15;6.00;;;;;;;13.95;58.35;101434.48;1799528;75;21327;-77
2021/04/13 08:37:52;;;;;;;6.47;5.12;;;;;;;13.88;58.51;101434.00;1820016;75;21451;-80
2021/04/13 08:41:02;;;;;;;6.70;5.50;;;;;;;13.82;58.64;101429.94;1814873;74;21096;-76
2021/04/13 08:43:51;;;;;;;8.30;6.10;;;;;;;13.76;58.62;101430.78;1845592;75;21300;-78
2021/04/13 08:49:55;;;;;;;8.48;6.60;;;;;;;13.70;58.90;101435.12;1785670;75;20997;-77
2021/04/13 08:52:44;;;;;;;10.23;6.37;;;;;;;13.65;58.71;101424.83;1798143;76;21025;-77
2021/04/13 08:55:31;;;;;;;11.90;7.15;;;;;;;13.63;59.03;101426.26;1836582;74;21820;-78
2021/04/13 08:58:18;;;;;;;10.65;6.05;;;;;;;13.62;59.11;101423.70;1859691;75;21368;31
2021/04/13 09:00:50;;;;;;;9.68;6.53;;;;;;;13.59;59.14;101417.31;1809607;75;21486;-78
2021/04/13 09:03:21;;;;;;;8.78;5.92;;;;;;;13.57;58.88;101425.30;1791927;80;20949;-77
2021/04/13 09:06:11;;;;;;;11.33;6.53;;;;;;;13.56;59.01;101418.34;1792026;80;20902;-77
2021/04/13 09:09:06;;;;;;;11.35;6.72;;;;;;;13.58;58.93;101415.59;1772964;75;21018;31
2021/04/13 09:12:10;;;;;;;13.40;7.20;;;;;;;13.57;58.87;101420.03;1796230;77;21426;-79
2021/04/13 09:14:50;;;;;;;10.82;6.83;;;;;;;13.55;59.02;101422.38;1805060;77;21455;-78
2021/04/13 09:20:50;;;;;;;8.55;5.65;;;;;;;13.51;59.17;101428.30;1769761;77;21033;-81
2021/04/13 09:23:44;;;;;;;8.13;6.17;;;;;;;13.49;59.19;101430.17;1784882;77;21096;-78
2021/04/13 09:26:18;;;;;;;9.98;6.62;;;;;;;13.43;59.25;101422.65;1790044;78;21362;-79
2021/04/13 09:28:52;;;;;;;7.58;6.20;;;;;;;13.40;59.40;101420.18;1765517;76;20953;-78
2021/04/13 09:31:43;;;;;;;7.83;6.37;;;;;;;13.38;59.68;101422.89;1806860;76;20926;-78
2021/04/13 09:34:44;;;;;;;8.80;6.60;;;;;;;13.40;59.34;101424.13;1800997;78;20992;-80
2021/04/13 13:41:50;;;;;;;15.48;10.55;;;;;;;12.55;63.86;101405.71;1791434;76;22662;-77
2021/04/13 13:44:40;;;;;;;18.50;10.72;;;;;;;12.50;63.92;101410.39;1708578;79;20957;-80
2021/04/13 13:47:26;;;;;;;24.57;15.05;;;;;;;12.47;64.03;101411.38;1663288;85;21437;-78
2021/04/13 13:50:00;;;;;;;28.12;17.15;;;;;;;12.43;64.17;101409.41;1642091;83;21025;31
2021/04/13 13:52:53;;;;;;;26.00;15.35;;;;;;;12.37;64.26;101418.94;1572294;90;21073;-79
2021/04/13 13:55:36;;;;;;;31.27;14.23;;;;;;;12.32;64.43;101405.67;1586210;89;20992;-76
2021/04/13 13:58:21;;;;;;;14.50;10.33;;;;;;;12.29;64.54;101400.56;1560717;90;20996;-77
2021/04/13 14:01:06;;;;;;;13.53;9.38;;;;;;;12.27;64.59;101405.05;1586162;89;21221;-78
2021/04/13 14:03:43;;;;;;;14.33;9.13;;;;;;;12.26;64.66;101409.47;1624185;87;21012;-79
2021/04/13 14:06:20;;;;;;;17.20;11.85;;;;;;;12.27;64.84;101407.69;1623626;87;20991;-74
2021/04/13 14:08:52;;;;;;;11.20;8.40;;;;;;;12.28;64.96;101403.66;1696969;81;21050;-81
2021/04/13 14:11:33;;;;;;;12.30;8.13;;;;;;;12.31;64.96;101398.70;1679901;84;21022;-79
2021/04/13 14:14:18;;;;;;;17.23;7.37;;;;;;;12.34;64.96;101405.09;1649277;82;21268;-86
2021/04/13 14:16:52;;;;;;;13.62;8.40;;;;;;;12.31;65.06;101402.64;1694794;79;21077;-78
2021/04/13 14:19:33;;;;;;;20.70;11.20;;;;;;;12.29;65.10;101405.34;1704659;79;20970;-74
2021/04/13 14:22:19;;;;;;;17.27;11.60;;;;;;;12.27;65.12;101402.42;1727288;79;21828;-86
2021/04/13 14:25:13;;;;;;;14.07;9.68;;;;;;;12.21;65.13;101399.20;1759601;79;21000;-83
2021/04/13 14:27:41;;;;;;;14.43;9.70;;;;;;;12.14;65.31;101403.55;1744626;78;22224;-85
2021/04/13 14:30:18;;;;;;;20.20;9.55;;;;;;;12.12;65.45;101404.13;1712530;81;20984;-76
2021/04/13 14:32:47;;;;;;;26.48;11.40;;;;;;;12.11;65.58;101404.56;1695515;80;21454;-83
2021/04/13 14:35:17;;;;;;;24.25;11.12;;;;;;;12.11;65.74;101402.41;1717890;80;21028;-76
2021/04/13 14:37:52;;;;;;;19.15;10.90;;;;;;;12.13;65.77;101405.34;1711624;83;21068;-79
2021/04/13 14:40:27;;;;;;;20.27;11.45;;;;;;;12.15;65.71;101405.27;1729884;79;21393;-77
2021/04/13 14:43:13;;;;;;;29.70;15.90;;;;;;;12.17;65.65;101407.34;1730409;80;20925;-76
2021/04/13 14:45:41;;;;;;;23.70;11.88;;;;;;;12.18;65.67;101412.53;1707431;80;20915;-78
2021/04/13 14:48:17;;;;;;;15.03;9.03;;;;;;;12.17;65.75;101408.66;1718342;80;20958;-80
2021/04/13 14:50:48;;;;;;;17.82;9.10;;;;;;;12.13;66.05;101413.22;1723499;80;21023;-76
2021/04/13 14:53:17;;;;;;;12.00;6.33;;;;;;;12.11;66.33;101417.71;1772673;77;21361;-76
2021/04/13 14:55:45;;;;;;;13.50;5.50;;;;;;;12.08;66.69;101420.99;1774622;79;21236;-79
2021/04/13 14:58:19;;;;;;;13.00;5.65;;;;;;;12.01;67.08;101418.69;1713134;79;21195;-75
2021/04/13 15:00:47;;;;;;;7.92;5.45;;;;;;;11.97;67.36;101422.88;1730183;77;21434;-78
2021/04/13 15:03:18;;;;;;;13.15;7.60;;;;;;;11.92;67.65;101417.02;1687544;83;21616;-75
2021/04/13 15:05:49;;;;;;;16.57;9.95;;;;;;;11.89;67.77;101411.43;1687142;79;22376;-74
2021/04/13 15:08:21;;;;;;;13.45;7.90;;;;;;;11.88;67.87;101409.75;1727979;79;21248;-82
2021/04/13 15:10:51;;;;;;;11.18;7.00;;;;;;;11.86;68.28;101412.89;1709653;79;23761;-73
2021/04/13 15:13:43;;;;;;;12.80;7.78;;;;;;;11.82;68.45;101407.41;1742242;78;20982;-76
2021/04/13 15:16:17;;;;;;;11.88;7.35;;;;;;;11.78;68.75;101413.74;1719802;78;21007;-86
2021/04/13 15:18:52;;;;;;;12.03;7.50;;;;;;;11.74;68.96;101410.45;1662367;80;21222;-79
2021/04/13 15:21:29;;;;;;;13.62;8.83;;;;;;;11.73;69.11;101406.10;1717956;79;21014;-78
2021/04/13 15:24:26;;;;;;;;;;;;;;;;;;;;;
2021/04/13 15:27:05;;;;;;;16.85;10.98;;;;;;;11.72;69.29;101410.98;1717667;78;21563;-78
2021/04/13 15:29:33;;;;;;;19.40;12.70;;;;;;;11.75;69.26;101412.13;1684276;81;21451;-75
2021/04/13 15:32:03;;;;;;;19.05;11.28;;;;;;;11.78;69.17;101408.48;1772239;76;21378;-78
2021/04/13 15:35:00;;;;;;;19.82;11.53;;;;;;;11.78;69.08;101409.36;1726152;79;21555;-75
2021/04/13 15:38:08;;;;;;;25.35;12.33;;;;;;;11.76;69.12;101410.34;1690307;79;21038;-74
2021/04/13 15:40:40;;;;;;;16.50;11.15;;;;;;;11.73;69.13;101407.41;1661397;79;21199;-75
2021/04/13 15:43:21;;;;;;;21.80;13.78;;;;;;;11.73;69.23;101412.67;1652407;79;21046;-76
2021/04/13 15:46:09;;;;;;;19.50;12.73;;;;;;;11.74;69.28;101417.48;1670821;79;21396;31
2021/04/13 15:48:42;;;;;;;23.20;11.22;;;;;;;11.76;69.23;101415.16;1734156;77;21009;-78
2021/04/13 15:51:14;;;;;;;19.05;10.18;;;;;;;11.78;69.15;101408.05;1766108;79;20923;-78
2021/04/13 15:53:45;;;;;;;22.35;11.60;;;;;;;11.81;68.98;101409.19;1735089;76;21062;-74
2021/04/13 15:56:14;;;;;;;19.77;12.70;;;;;;;11.82;68.85;101414.81;1693745;79;20904;-77
2021/04/13 15:58:43;;;;;;;21.65;14.98;;;;;;;11.81;68.82;101414.92;1712752;79;22293;-76
2021/04/13 16:01:13;;;;;;;39.05;20.27;;;;;;;11.79;68.83;101418.93;1728534;79;21012;-74
2021/04/13 16:03:42;;;;;;;32.95;20.70;;;;;;;11.78;68.68;101415.06;1683579;81;22924;-72
2021/04/13 16:06:11;;;;;;;32.38;18.60;;;;;;;11.76;68.69;101419.55;1696022;79;20951;-77
2021/04/13 16:08:40;;;;;;;31.55;19.50;;;;;;;11.75;68.68;101417.38;1739427;78;20940;-73
2021/04/13 16:11:09;;;;;;;37.67;20.80;;;;;;;11.73;68.57;101416.61;1733529;79;21207;-73
2021/04/13 16:13:39;;;;;;;43.48;24.57;;;;;;;11.71;68.63;101411.90;1755596;78;20978;-76
2021/04/13 16:16:09;;;;;;;38.85;21.45;;;;;;;11.71;68.47;101411.90;1728827;78;20930;-73
2021/04/13 16:18:38;;;;;;;27.65;18.73;;;;;;;11.71;68.31;101407.12;1706801;80;20932;-75
2021/04/13 16:21:07;;;;;;;34.65;19.50;;;;;;;11.70;68.13;101404.96;1705702;79;20946;-76
2021/04/13 16:23:37;;;;;;;30.50;18.20;;;;;;;11.68;68.06;101410.76;1703690;79;21184;-74
2021/04/13 16:26:10;;;;;;;33.60;19.17;;;;;;;11.67;68.01;101411.70;1724097;77;20998;-75
2021/04/13 16:28:39;;;;;;;42.10;20.70;;;;;;;11.68;67.89;101416.02;1690462;79;21173;-75
2021/04/13 16:31:43;;;;;;;35.45;22.35;;;;;;;11.67;67.82;101417.39;1708252;79;20929;-76
2021/04/13 16:34:24;;;;;;;42.98;24.90;;;;;;;11.62;67.81;101412.38;1687617;80;21050;-74
2021/04/13 16:36:58;;;;;;;50.52;27.77;;;;;;;11.65;67.74;101422.75;1730532;78;22116;-78
2021/04/13 16:40:11;;;;;;;48.87;28.83;;;;;;;11.66;67.64;101420.49;1699857;79;21117;-75
2021/04/13 16:42:53;;;;;;;57.65;32.85;;;;;;;11.66;67.57;101420.49;1701369;78;21088;-73
2021/04/13 16:45:37;;;;;;;54.75;33.25;;;;;;;11.69;67.38;101429.99;1739254;80;21252;-75
2021/04/13 16:48:18;;;;;;;55.00;32.98;;;;;;;11.67;67.26;101423.52;1674007;80;21467;-76
2021/04/13 16:50:47;;;;;;;58.10;32.58;;;;;;;11.60;67.21;101429.56;1727751;78;21384;-76
2021/04/13 16:53:33;;;;;;;55.92;32.63;;;;;;;11.66;67.18;101434.10;1806356;74;22839;-74
2021/04/13 16:56:03;;;;;;;58.58;32.25;;;;;;;11.60;67.20;101445.77;1765718;78;21316;-79